Time;durP1;ratioP1;P1;durP2;ratioP2;P2;SDS_P1;SDS_P2;PMS_P1;PMS_P2;Temp;Humidity;BMP_temperature;BMP_pressure;BME280_temperature;BME280_humidity;BME280_pressure;Samples;Min_cycle;Max_cycle;Signal;HPM_P1;HPM_P2
2021/11/30 00:00:12;;;;;;;0.80;0.80;;;19.90;42.90;;;23.48;28.35;100196.06;4861945;29;20049;-80
2021/11/30 00:02:38;;;;;;;0.70;0.70;;;19.90;42.40;;;23.52;28.36;100186.81;4878642;29;20090;-81
2021/11/30 00:05:06;;;;;;;1.17;0.90;;;19.90;42.40;;;23.48;28.41;100174.72;4861811;29;20053;-80
2021/11/30 00:07:35;;;;;;;0.80;0.77;;;19.90;42.40;;;23.46;28.48;100158.84;4862053;29;20105;-80
2021/11/30 00:12:36;;;;;;;0.77;0.70;;;19.90;42.40;;;23.51;28.54;100165.63;4862557;29;20490;-81
2021/11/30 00:15:04;;;;;;;0.93;0.80;;;19.90;42.40;;;23.49;28.35;100163.09;4861812;29;20053;-80
2021/11/30 00:17:31;;;;;;;1.10;0.90;;;19.90;42.40;;;23.50;28.56;100159.44;4861670;29;20135;-81
2021/11/30 00:19:58;;;;;;;0.70;0.70;;;19.90;42.40;;;23.50;28.42;100151.44;4846706;29;20088;-81
2021/11/30 00:22:27;;;;;;;0.90;0.90;;;19.90;42.40;;;23.48;28.42;100151.56;4878654;29;20065;-81
2021/11/30 00:24:53;;;;;;;0.85;0.80;;;19.90;42.40;;;23.52;28.22;100143.28;4849415;29;20114;-81
2021/11/30 00:27:20;;;;;;;0.70;0.70;;;19.90;42.40;;;23.50;28.40;100130.09;4864779;29;20063;-81
2021/11/30 00:29:46;;;;;;;1.85;0.82;;;19.90;42.40;;;23.48;28.52;100132.03;4849777;29;20129;-81
2021/11/30 00:32:12;;;;;;;0.95;0.82;;;19.90;42.40;;;23.51;28.26;100136.28;4864714;29;20057;-80
2021/11/30 00:34:38;;;;;;;0.95;0.70;;;19.90;42.40;;;23.51;28.41;100128.28;4864840;29;20588;-81
2021/11/30 00:37:04;;;;;;;0.80;0.80;;;19.90;42.40;;;23.49;28.29;100121.25;4864774;29;20080;-81
2021/11/30 00:39:30;;;;;;;0.90;0.90;;;19.90;42.40;;;23.50;28.35;100114.06;4864487;29;20140;-81
2021/11/30 00:41:59;;;;;;;0.60;0.60;;;19.90;42.40;;;23.51;28.71;100113.09;4849469;29;20581;-81
2021/11/30 00:44:28;;;;;;;0.80;0.70;;;19.90;42.40;;;23.52;28.39;100101.44;4865040;29;20052;-81
2021/11/30 00:46:56;;;;;;;0.77;0.77;;;19.90;42.40;;;23.49;28.53;100107.91;4865005;29;20057;-81
2021/11/30 00:49:23;;;;;;;0.70;0.70;;;19.80;42.40;;;23.48;28.37;100090.19;4864269;29;20135;-81
2021/11/30 00:51:51;;;;;;;0.75;0.70;;;19.90;42.40;;;23.48;28.45;100090.19;4864958;29;20381;-81
2021/11/30 00:54:19;;;;;;;0.60;0.60;;;19.90;42.40;;;23.47;28.44;100091.19;4881266;29;20128;-81
2021/11/30 00:56:48;;;;;;;0.80;0.80;;;19.90;42.40;;;23.47;28.52;100082.31;4864281;29;20053;-81
2021/11/30 00:59:14;;;;;;;0.80;0.80;;;19.90;42.40;;;23.51;28.36;100083.75;4879692;29;20061;-81
2021/11/30 01:01:40;;;;;;;0.88;0.80;;;19.90;42.40;;;23.49;28.47;100075.88;4864216;29;20113;-81
2021/11/30 01:04:10;;;;;;;0.70;0.70;;;19.90;42.30;;;23.46;28.43;100073.47;4864389;29;20049;-81
2021/11/30 01:06:37;;;;;;;0.68;0.68;;;19.90;42.40;;;23.48;28.35;100074.19;4849372;29;20052;-80
2021/11/30 01:09:05;;;;;;;1.33;1.10;;;19.90;42.40;;;23.51;28.27;100081.09;4848820;29;20152;-81
2021/11/30 01:11:32;;;;;;;0.68;0.65;;;19.90;42.40;;;23.52;28.36;100063.25;4864275;29;20057;-81
2021/11/30 01:13:58;;;;;;;1.20;0.77;;;19.90;42.40;;;23.52;28.14;100058.75;4864233;29;20045;-81
2021/11/30 01:16:23;;;;;;;0.90;0.77;;;19.90;42.40;;;23.52;28.15;100049.91;4864038;29;20064;-81
2021/11/30 01:18:50;;;;;;;0.60;0.60;;;19.90;42.40;;;23.53;28.21;100035.59;4864060;29;20064;-81
2021/11/30 01:21:15;;;;;;;0.80;0.80;;;19.90;42.40;;;23.46;28.38;100017.44;4880620;29;20105;-81
2021/11/30 01:23:41;;;;;;;0.98;0.80;;;19.90;42.30;;;23.49;28.52;100017.19;4864049;29;20053;-80
2021/11/30 01:26:07;;;;;;;0.70;0.70;;;19.90;42.30;;;23.49;28.42;100009.19;4864359;29;20063;-80
2021/11/30 01:28:33;;;;;;;1.13;0.80;;;19.90;42.40;;;23.49;28.19;100011.84;4880895;29;20045;-81
2021/11/30 01:31:01;;;;;;;0.98;0.90;;;19.80;42.30;;;23.46;28.48;100008.59;4848551;29;20118;-81
2021/11/30 01:33:28;;;;;;;0.63;0.63;;;19.90;42.40;;;23.50;28.36;100018.03;4880716;29;20048;-81
2021/11/30 01:35:55;;;;;;;0.80;0.80;;;19.90;42.40;;;23.52;28.41;100013.38;4863802;29;20076;-81
2021/11/30 01:38:21;;;;;;;1.08;0.98;;;19.90;42.40;;;23.49;28.40;99998.50;4864101;29;20049;-80
2021/11/30 01:40:48;;;;;;;1.33;0.80;;;19.90;42.40;;;23.48;28.38;99995.97;4863698;29;20053;-81
2021/11/30 01:43:19;;;;;;;0.65;0.65;;;19.90;42.40;;;23.49;28.57;99992.34;4863896;29;20049;-81
2021/11/30 01:45:57;;;;;;;0.82;0.80;;;19.90;42.40;;;23.51;28.34;99995.72;4864893;29;20190;-80
2021/11/30 01:50:54;;;;;;;0.70;0.70;;;19.90;42.30;;;23.49;28.29;99987.00;4863704;29;20068;-81
2021/11/30 01:53:20;;;;;;;0.60;0.60;;;19.80;42.30;;;23.52;28.34;99991.22;4863999;29;20413;-81
2021/11/30 01:55:48;;;;;;;0.60;0.60;;;19.90;42.40;;;23.48;28.34;99983.47;4848178;29;20059;-81
2021/11/30 01:58:15;;;;;;;0.77;0.77;;;19.80;42.30;;;23.49;28.40;99971.81;4863443;29;20060;-81
2021/11/30 02:00:44;;;;;;;1.10;0.60;;;19.90;42.40;;;23.46;28.50;99949.91;4863311;29;20052;-81
2021/11/30 02:03:10;;;;;;;0.95;0.80;;;19.90;42.40;;;23.50;28.35;99953.97;4863421;29;20056;-80
2021/11/30 02:05:39;;;;;;;0.70;0.70;;;19.90;42.30;;;23.47;28.43;99943.56;4863424;29;20048;-81
2021/11/30 02:08:07;;;;;;;0.80;0.80;;;19.90;42.30;;;23.50;28.35;99935.31;4863102;29;20052;-81
2021/11/30 02:10:35;;;;;;;0.80;0.70;;;19.90;42.40;;;23.48;28.53;99926.59;4863338;29;20049;-81
2021/11/30 02:13:03;;;;;;;0.70;0.70;;;19.90;42.40;;;23.50;28.46;99929.97;4863401;29;20064;-81
2021/11/30 02:15:29;;;;;;;0.70;0.70;;;19.90;42.40;;;23.47;28.47;99907.09;4863181;29;20053;-81
2021/11/30 02:18:02;;;;;;;0.82;0.82;;;19.90;42.30;;;23.49;28.40;99905.13;4863147;29;21412;-81
2021/11/30 02:20:28;;;;;;;0.70;0.65;;;19.90;42.40;;;23.48;28.52;99890.09;4864273;29;20065;-81
2021/11/30 02:22:56;;;;;;;0.60;0.60;;;19.90;42.30;;;23.48;28.31;99882.06;4863268;29;20064;-81
2021/11/30 02:25:23;;;;;;;1.15;1.05;;;19.90;42.30;;;23.53;28.18;99875.50;4863476;29;20489;-81
2021/11/30 02:27:50;;;;;;;0.80;0.80;;;19.90;42.30;;;23.49;28.44;99867.78;4863505;29;20083;-81
2021/11/30 02:30:16;;;;;;;0.50;0.50;;;19.90;42.40;;;23.50;28.45;99857.94;4863139;29;20053;-80
2021/11/30 02:32:42;;;;;;;0.63;0.60;;;19.90;42.40;;;23.46;28.44;99844.03;4879832;29;20057;-81
2021/11/30 02:35:09;;;;;;;0.70;0.70;;;19.80;42.30;;;23.50;28.26;99833.91;4863052;29;20040;-81
2021/11/30 02:37:42;;;;;;;0.60;0.60;;;19.90;42.30;;;23.47;28.43;99821.72;4863164;29;20114;-81
2021/11/30 02:40:09;;;;;;;0.73;0.70;;;19.90;42.30;;;23.47;28.36;99810.19;4863691;29;20045;-81
2021/11/30 02:42:36;;;;;;;0.60;0.60;;;19.90;42.30;;;23.49;28.54;99811.75;4863223;29;20140;-81
2021/11/30 02:45:04;;;;;;;0.80;0.70;;;19.80;42.30;;;23.48;28.42;99801.19;4862719;29;20486;-81
2021/11/30 02:47:30;;;;;;;0.70;0.70;;;19.90;42.30;;;23.46;28.49;99796.00;4879081;29;20486;-81
2021/11/30 02:49:58;;;;;;;0.70;0.70;;;19.90;42.30;;;23.47;28.44;99787.03;4847270;29;20099;-81
2021/11/30 02:52:26;;;;;;;0.60;0.60;;;19.90;42.30;;;23.47;28.35;99776.34;4879643;29;20053;-81
2021/11/30 02:54:53;;;;;;;0.57;0.57;;;19.90;42.30;;;23.52;28.29;99764.41;4862977;29;20105;-81
2021/11/30 02:57:22;;;;;;;0.75;0.75;;;19.90;42.30;;;23.51;28.32;99755.56;4847489;29;20104;-80
2021/11/30 02:59:51;;;;;;;0.68;0.68;;;19.90;42.30;;;23.49;28.48;99742.38;4862716;29;20057;-81
2021/11/30 03:02:20;;;;;;;1.38;0.85;;;19.90;42.30;;;23.48;28.50;99726.50;4862592;29;20454;-81
2021/11/30 03:04:49;;;;;;;0.70;0.70;;;19.90;42.30;;;23.55;28.18;99732.13;4862616;29;20057;-81
2021/11/30 03:07:21;;;;;;;0.80;0.80;;;19.90;42.20;;;23.51;28.47;99714.72;4862496;29;20140;-80
2021/11/30 03:09:47;;;;;;;0.60;0.60;;;19.90;42.20;;;23.53;28.51;99726.94;4862491;29;20140;-81
2021/11/30 03:12:13;;;;;;;0.70;0.70;;;19.90;42.20;;;23.55;28.39;99714.28;4862578;29;20156;-81
2021/11/30 03:14:39;;;;;;;0.80;0.80;;;20.00;42.20;;;23.56;28.59;99701.81;4862515;29;20057;-81
2021/11/30 03:17:08;;;;;;;0.65;0.65;;;20.00;42.20;;;23.54;28.33;99685.06;4847011;29;20103;-81
2021/11/30 03:19:34;;;;;;;1.73;0.80;;;20.00;42.10;;;23.57;28.40;99693.66;4862403;29;20156;-81
2021/11/30 03:22:01;;;;;;;0.80;0.80;;;20.00;42.10;;;23.58;28.47;99679.31;4877849;29;20135;-80
2021/11/30 03:24:27;;;;;;;0.50;0.50;;;20.00;42.10;;;23.58;28.51;99665.16;4862362;29;20413;-81
2021/11/30 03:26:54;;;;;;;0.70;0.70;;;20.00;42.10;;;23.60;28.38;99661.34;4879105;29;20052;-80
2021/11/30 03:29:21;;;;;;;0.60;0.60;;;20.00;42.10;;;23.58;28.22;99638.47;4862153;29;20049;-81
2021/11/30 03:31:51;;;;;;;0.65;0.60;;;20.00;42.10;;;23.62;28.18;99632.72;4862165;29;20128;-81
2021/11/30 03:34:22;;;;;;;0.60;0.60;;;20.00;42.10;;;23.59;28.45;99622.31;4847373;29;20097;-81
2021/11/30 03:36:54;;;;;;;0.70;0.70;;;20.00;42.00;;;23.61;28.50;99611.50;4862313;29;20515;-81
2021/11/30 03:39:24;;;;;;;0.65;0.65;;;20.00;42.00;;;23.63;28.18;99615.69;4862112;29;20049;-81
2021/11/30 03:41:52;;;;;;;0.70;0.70;;;20.00;42.00;;;23.61;28.29;99595.50;4846589;29;20049;-80
2021/11/30 03:44:20;;;;;;;0.77;0.70;;;20.00;42.00;;;23.65;28.33;99586.19;4862059;29;20133;-80
2021/11/30 03:46:46;;;;;;;0.60;0.60;;;20.10;42.00;;;23.65;28.35;99584.38;4862045;29;20056;-81
2021/11/30 03:49:13;;;;;;;0.80;0.80;;;20.00;42.00;;;23.64;28.21;99572.03;4846671;29;20116;-80
2021/11/30 03:51:40;;;;;;;0.60;0.60;;;20.10;42.00;;;23.71;28.41;99566.13;4862083;29;20080;-81
2021/11/30 03:54:07;;;;;;;0.60;0.50;;;20.10;42.00;;;23.68;28.21;99559.22;4846703;29;20509;-80
2021/11/30 03:56:36;;;;;;;1.00;0.50;;;20.10;42.00;;;23.71;28.20;99563.44;4861914;29;20077;-81
2021/11/30 03:59:02;;;;;;;0.57;0.57;;;20.10;42.00;;;23.70;28.18;99541.25;4864066;29;20052;-81
2021/11/30 04:01:28;;;;;;;0.90;0.75;;;20.10;41.90;;;23.68;28.26;99519.19;4865217;29;20087;-81
2021/11/30 04:03:55;;;;;;;1.55;0.80;;;20.10;41.90;;;23.71;28.21;99523.44;4881963;29;20489;-80
2021/11/30 04:06:22;;;;;;;0.57;0.57;;;20.10;41.90;;;23.71;28.29;99516.25;4865328;29;20053;-81
2021/11/30 04:08:50;;;;;;;0.60;0.60;;;20.10;41.90;;;23.70;28.19;99503.06;4881816;29;20428;-81
2021/11/30 04:11:17;;;;;;;0.60;0.60;;;20.10;41.90;;;23.76;28.07;99497.97;4865449;29;20053;-81
2021/11/30 04:13:43;;;;;;;0.77;0.77;;;20.10;41.90;;;23.74;28.27;99499.94;4865511;29;20489;-80
2021/11/30 04:16:09;;;;;;;0.52;0.52;;;20.10;41.90;;;23.77;28.22;99483.66;4864638;29;20045;-81
2021/11/30 04:18:35;;;;;;;0.60;0.60;;;20.20;41.90;;;23.76;28.30;99471.28;4864936;29;20049;-81
2021/11/30 04:21:01;;;;;;;0.50;0.50;;;20.10;41.80;;;23.72;28.24;99451.19;4865044;29;20596;-81
2021/11/30 04:23:28;;;;;;;0.73;0.70;;;20.10;41.90;;;23.75;28.35;99458.91;4849899;29;20057;-80
2021/11/30 04:25:54;;;;;;;0.60;0.60;;;20.10;41.90;;;23.78;28.24;99447.94;4865435;29;20053;-81
2021/11/30 04:28:20;;;;;;;0.60;0.60;;;20.20;41.90;;;23.76;28.04;99435.75;4849374;29;20477;-81
2021/11/30 04:30:46;;;;;;;0.70;0.50;;;20.20;41.90;;;23.78;28.02;99429.25;4864829;29;20053;-81
2021/11/30 04:33:12;;;;;;;0.60;0.60;;;20.20;41.90;;;23.77;28.18;99411.59;4865195;29;20077;-81
2021/11/30 04:35:38;;;;;;;0.70;0.70;;;20.10;41.80;;;23.76;28.19;99404.56;4849377;29;20053;-81
2021/11/30 04:38:03;;;;;;;0.60;0.60;;;20.10;41.80;;;23.78;28.15;99404.41;4881515;29;20049;-81
2021/11/30 04:40:29;;;;;;;1.45;0.70;;;20.10;41.80;;;23.80;28.12;99402.44;4849326;29;20493;-81
2021/11/30 04:42:55;;;;;;;0.60;0.60;;;20.20;41.80;;;23.81;28.11;99388.09;4864784;29;20416;-81
2021/11/30 04:45:44;;;;;;;0.50;0.50;;;20.20;41.80;;;23.79;28.29;99385.59;4880453;29;20084;-81
2021/11/30 04:48:13;;;;;;;0.60;0.60;;;20.10;41.80;;;23.77;28.08;99365.34;4864863;29;20041;-81
2021/11/30 04:50:42;;;;;;;0.43;0.43;;;20.10;41.70;;;23.80;28.15;99363.22;4881441;29;20095;-81
2021/11/30 04:53:08;;;;;;;0.60;0.60;;;20.10;41.80;;;23.80;27.88;99351.72;4865008;29;20049;-81
2021/11/30 04:55:34;;;;;;;0.60;0.60;;;20.20;41.80;;;23.80;27.98;99360.56;4864620;29;20069;-81
2021/11/30 04:58:03;;;;;;;0.70;0.70;;;20.10;41.70;;;23.79;27.90;99342.88;4864363;29;20143;-81
2021/11/30 05:00:31;;;;;;;0.70;0.70;;;20.20;41.70;;;23.80;28.04;99341.88;4849101;29;20053;-81
2021/11/30 05:02:57;;;;;;;0.68;0.60;;;20.20;41.80;;;23.81;28.08;99335.56;4864538;29;20056;-81
2021/11/30 05:05:23;;;;;;;0.70;0.60;;;20.20;41.70;;;23.80;28.12;99331.19;4848897;29;20057;-81
2021/11/30 05:07:49;;;;;;;0.70;0.70;;;20.10;41.70;;;23.82;28.11;99328.41;4881030;29;20045;-81
2021/11/30 05:10:18;;;;;;;0.73;0.70;;;20.10;41.60;;;23.81;27.96;99316.03;4848587;29;20417;-81
2021/11/30 05:12:46;;;;;;;0.88;0.77;;;20.20;41.70;;;23.82;28.21;99320.41;4881045;29;20135;-81
2021/11/30 05:15:13;;;;;;;0.57;0.50;;;20.20;41.70;;;23.80;28.13;99306.34;4864288;29;20382;-81
2021/11/30 05:17:39;;;;;;;0.60;0.60;;;20.20;41.70;;;23.82;27.88;99302.59;4864153;29;20069;-81
2021/11/30 05:20:06;;;;;;;0.60;0.60;;;20.20;41.60;;;23.80;28.00;99291.16;4864282;29;20060;-81
2021/11/30 05:22:32;;;;;;;0.50;0.50;;;20.20;41.70;;;23.78;27.95;99282.47;4848599;29;20065;-81
2021/11/30 05:25:00;;;;;;;0.70;0.60;;;20.20;42.20;;;23.79;28.02;99283.31;4863767;29;20057;-81
2021/11/30 05:27:28;;;;;;;0.50;0.50;;;20.20;41.70;;;23.81;27.95;99281.34;4864104;29;20092;-81
2021/11/30 05:29:54;;;;;;;0.60;0.60;;;20.20;41.70;;;23.82;28.01;99265.22;4863877;29;20079;-81
2021/11/30 05:32:20;;;;;;;0.57;0.57;;;20.20;41.70;;;23.81;27.91;99266.16;4880586;29;20065;-81
2021/11/30 05:34:46;;;;;;;0.70;0.70;;;20.20;41.60;;;23.81;27.91;99266.16;4863947;29;20117;-81
2021/11/30 05:37:13;;;;;;;0.60;0.60;;;20.20;41.70;;;23.82;28.21;99254.53;4864201;29;20540;-81
2021/11/30 05:39:40;;;;;;;0.55;0.50;;;20.20;41.60;;;23.82;27.93;99251.00;4864060;29;20061;-81
2021/11/30 05:42:07;;;;;;;0.52;0.52;;;20.20;41.70;;;23.82;28.03;99246.53;4879262;29;20416;-81
2021/11/30 05:44:34;;;;;;;0.70;0.70;;;20.20;41.70;;;23.79;28.12;99254.81;4863801;29;20045;-81
2021/11/30 05:47:00;;;;;;;0.60;0.60;;;20.20;41.70;;;23.83;27.90;99260.72;4848290;29;20056;-81
2021/11/30 05:49:26;;;;;;;1.85;0.50;;;20.20;41.70;;;23.81;28.00;99244.81;4848268;29;20059;-81
2021/11/30 05:51:53;;;;;;;0.50;0.50;;;20.20;41.70;;;23.81;28.15;99242.13;4848271;29;20083;-81
2021/11/30 05:54:19;;;;;;;0.60;0.60;;;20.20;41.70;;;23.85;28.08;99240.03;4863898;29;20461;-81
2021/11/30 05:56:45;;;;;;;0.60;0.60;;;20.20;41.70;;;23.82;28.01;99235.00;4863620;29;20060;-81
2021/11/30 05:59:13;;;;;;;0.60;0.60;;;20.20;41.70;;;23.80;27.95;99220.94;4863603;29;20516;-81
2021/11/30 06:01:39;;;;;;;0.60;0.60;;;20.20;41.70;;;23.83;27.94;99232.19;4863297;29;20139;-81
2021/11/30 06:04:05;;;;;;;0.50;0.50;;;20.20;41.70;;;23.83;28.07;99216.16;4848086;29;20052;-81
2021/11/30 06:06:35;;;;;;;0.98;0.57;;;20.20;41.70;;;23.78;27.96;99220.25;4863577;29;20053;-81
2021/11/30 06:09:04;;;;;;;0.60;0.60;;;20.20;41.70;;;23.82;28.12;99211.84;4863660;29;20057;-81
2021/11/30 06:11:30;;;;;;;0.70;0.70;;;20.20;41.70;;;23.82;28.03;99216.31;4863260;29;20052;-81
2021/11/30 06:13:56;;;;;;;0.57;0.57;;;20.20;41.70;;;23.82;28.11;99210.97;4863552;29;20055;-81
2021/11/30 06:16:22;;;;;;;0.60;0.60;;;20.20;41.70;;;23.79;28.05;99197.91;4863448;29;20498;-82
2021/11/30 06:18:48;;;;;;;0.60;0.60;;;20.20;41.70;;;23.82;28.06;99200.28;4863306;29;20057;-83
2021/11/30 06:21:17;;;;;;;0.60;0.60;;;20.20;41.70;;;23.85;27.95;99205.34;4862207;29;20059;-79
2021/11/30 06:23:44;;;;;;;0.65;0.65;;;20.20;41.60;;;23.82;28.03;99198.50;4878523;29;20118;-79
2021/11/30 06:26:11;;;;;;;0.60;0.60;;;20.20;41.60;;;23.79;28.04;99182.75;4863165;29;20049;-79
2021/11/30 06:28:38;;;;;;;0.52;0.52;;;20.20;41.60;;;23.83;27.78;99192.13;4863045;29;20053;-78
2021/11/30 06:31:05;;;;;;;0.60;0.60;;;20.20;41.70;;;23.78;28.10;99196.25;4862925;29;20053;-78
2021/11/30 06:33:32;;;;;;;0.60;0.60;;;20.20;41.70;;;23.84;28.04;99204.50;4863285;29;20081;-78
2021/11/30 06:35:58;;;;;;;0.80;0.80;;;20.20;41.70;;;23.83;27.95;99199.31;4879885;29;20048;-78
2021/11/30 06:38:24;;;;;;;0.57;0.52;;;20.20;41.60;;;23.83;27.97;99202.81;4862703;29;20112;-78
2021/11/30 06:40:50;;;;;;;0.82;0.70;;;20.20;41.60;;;23.83;27.90;99202.00;4862861;29;20053;-78
2021/11/30 06:43:16;;;;;;;0.50;0.50;;;20.20;41.70;;;23.83;28.10;99193.97;4879674;29;20053;-79
2021/11/30 06:45:43;;;;;;;0.60;0.60;;;20.20;41.60;;;23.86;28.05;99202.50;4863016;29;20041;-79
2021/11/30 06:48:09;;;;;;;0.52;0.52;;;20.20;41.60;;;23.84;28.10;99212.50;4862738;29;20108;-79
2021/11/30 06:50:36;;;;;;;0.70;0.70;;;20.20;41.70;;;23.84;27.93;99209.84;4862701;29;20057;-79
2021/11/30 06:53:03;;;;;;;0.60;0.60;;;20.20;41.60;;;23.85;27.91;99213.34;4847491;29;20148;-79
2021/11/30 06:55:29;;;;;;;0.52;0.52;;;20.20;41.60;;;23.85;28.13;99214.16;4863032;29;20056;-78
2021/11/30 06:57:54;;;;;;;0.85;0.70;;;20.20;41.70;;;23.83;27.97;99218.84;4860746;29;20053;-79
2021/11/30 07:00:25;;;;;;;0.60;0.60;;;20.20;41.60;;;23.85;27.92;99222.19;4862527;29;20079;-79
2021/11/30 07:02:52;;;;;;;0.68;0.65;;;20.20;41.60;;;23.87;27.87;99208.69;4863083;29;20053;-79
2021/11/30 07:05:38;;;;;;;0.65;0.65;;;20.20;41.60;;;23.87;27.88;99208.69;4831850;29;20142;-79
2021/11/30 07:08:19;;;;;;;0.55;0.55;;;20.20;41.60;;;23.88;27.93;99215.72;4862146;29;20053;-79
2021/11/30 07:10:50;;;;;;;0.70;0.70;;;20.20;41.60;;;23.88;27.88;99214.88;4862391;29;20057;-78
2021/11/30 07:15:50;;;;;;;0.60;0.60;;;20.20;41.60;;;23.86;28.05;99215.84;4862423;29;20494;-78
2021/11/30 07:18:16;;;;;;;0.55;0.55;;;20.20;41.60;;;23.89;27.88;99211.19;4862009;29;20053;-79
2021/11/30 07:20:43;;;;;;;1.00;0.68;;;20.20;41.60;;;23.86;27.85;99223.03;4846364;29;20068;-78
2021/11/30 07:23:10;;;;;;;0.70;0.60;;;20.20;41.60;;;23.88;27.86;99230.91;4861658;29;20049;-78
2021/11/30 07:25:36;;;;;;;0.50;0.50;;;20.20;41.70;;;23.86;28.03;99207.03;4861841;29;20489;-78
2021/11/30 07:28:02;;;;;;;0.60;0.60;;;20.20;41.60;;;23.88;27.80;99218.38;4861701;29;20060;-79
2021/11/30 07:30:28;;;;;;;0.85;0.68;;;20.20;41.70;;;23.88;27.97;99213.03;4859994;29;20049;-78
2021/11/30 07:32:54;;;;;;;0.60;0.60;;;20.30;41.70;;;23.88;28.03;99221.03;4861650;29;20064;-78
2021/11/30 07:35:23;;;;;;;0.60;0.60;;;20.30;41.60;;;23.89;27.87;99209.38;4862071;29;20053;-78
2021/11/30 07:37:50;;;;;;;0.50;0.50;;;20.20;41.60;;;23.89;27.91;99212.06;4878528;29;20516;-78
2021/11/30 07:40:17;;;;;;;0.57;0.57;;;20.20;41.60;;;23.91;28.06;99215.41;4861851;29;20490;-78
2021/11/30 07:42:43;;;;;;;0.57;0.57;;;20.20;41.60;;;23.90;27.93;99220.91;4861925;29;20112;-79
2021/11/30 07:45:11;;;;;;;1.40;1.02;;;20.20;41.60;;;23.89;27.91;99211.19;4861915;29;20053;-78
2021/11/30 07:47:39;;;;;;;0.73;0.73;;;20.30;41.60;;;23.89;27.71;99204.06;4877433;29;20105;-79
2021/11/30 07:50:08;;;;;;;0.50;0.50;;;20.20;41.60;;;23.89;27.86;99214.72;4861862;29;20494;-79
2021/11/30 07:52:39;;;;;;;0.50;0.50;;;20.20;41.60;;;23.90;27.79;99207.56;4862260;29;20053;-79
2021/11/30 07:55:12;;;;;;;1.00;0.90;;;20.20;41.60;;;23.92;28.01;99211.72;4861824;29;20094;-78
2021/11/30 07:57:39;;;;;;;0.60;0.60;;;20.30;41.50;;;23.91;28.02;99199.38;4862238;29;20131;-78
2021/11/30 08:00:12;;;;;;;0.85;0.50;;;20.30;41.50;;;23.89;27.96;99204.06;4860015;29;20052;-78
2021/11/30 08:02:41;;;;;;;1.13;0.77;;;20.30;41.60;;;23.88;28.02;99205.03;4862180;29;20053;-78
2021/11/30 08:05:08;;;;;;;0.63;0.63;;;20.20;41.50;;;23.90;27.81;99197.69;4861579;29;20490;-78
2021/11/30 08:07:37;;;;;;;0.95;0.88;;;20.20;41.50;;;23.88;27.91;99198.88;4861643;29;20634;-79
2021/11/30 08:10:12;;;;;;;0.60;0.60;;;20.30;41.40;;;23.88;27.84;99202.38;4861718;29;20446;-78
2021/11/30 08:12:40;;;;;;;0.70;0.70;;;20.20;41.50;;;23.90;28.04;99212.88;4877233;29;20047;-78
2021/11/30 08:15:09;;;;;;;0.82;0.60;;;20.20;41.50;;;23.88;28.03;99202.38;4859969;29;20176;-78
2021/11/30 08:17:36;;;;;;;0.60;0.60;;;20.20;41.50;;;23.88;27.80;99202.38;4861078;29;20049;-78
2021/11/30 08:20:06;;;;;;;1.50;0.70;;;20.20;41.50;;;23.90;27.86;99210.22;4861515;29;20053;-78
2021/11/30 08:22:33;;;;;;;0.43;0.43;;;20.30;41.50;;;23.91;27.70;99199.38;4861435;29;20143;-78
2021/11/30 08:24:59;;;;;;;0.40;0.40;;;20.30;41.50;;;23.91;27.82;99203.91;4878403;29;20102;-79
2021/11/30 08:27:25;;;;;;;0.63;0.60;;;20.30;41.50;;;23.92;27.83;99205.56;4861446;29;20496;-78
2021/11/30 08:29:51;;;;;;;0.70;0.70;;;20.30;41.50;;;23.92;27.80;99194.88;4845607;29;20408;-78
2021/11/30 08:32:41;;;;;;;0.50;0.50;;;20.30;42.00;;;23.89;27.80;99201.38;4861290;29;20149;-78
2021/11/30 08:35:05;;;;;;;0.70;0.70;;;20.30;41.50;;;23.92;27.64;99205.56;4861032;29;20446;-78
2021/11/30 08:37:31;;;;;;;0.73;0.60;;;20.30;41.40;;;23.92;27.91;99217.06;4861253;29;20060;-78
2021/11/30 08:40:00;;;;;;;0.70;0.70;;;20.30;41.40;;;23.94;27.89;99224.91;4878172;29;20092;-79
2021/11/30 08:42:26;;;;;;;1.00;0.50;;;20.30;41.40;;;23.95;27.98;99224.78;4861216;29;20053;-78
2021/11/30 08:44:53;;;;;;;2.85;0.90;;;20.30;41.60;;;23.94;27.89;99224.91;4848157;29;20057;-80
2021/11/30 08:47:24;;;;;;;1.23;0.80;;;20.30;41.60;;;23.93;27.90;99220.59;4864961;29;20089;-79
2021/11/30 08:49:53;;;;;;;;;;;20.30;41.30;;;24.05;27.51;99228.19;4880893;29;20537;-79
2021/11/30 08:52:26;;;;;;;1.77;0.73;;;20.30;41.40;;;24.03;27.75;99226.69;4864320;29;19920;-79
2021/11/30 08:54:59;;;;;;;4.70;0.80;;;20.40;41.00;;;23.99;27.56;99209.28;4865054;29;20505;-85
2021/11/30 08:57:29;;;;;;;2.20;0.70;;;20.40;41.30;;;24.02;27.57;99235.66;4881281;29;20126;-84
2021/11/30 08:59:57;;;;;;;3.20;0.80;;;20.40;41.00;;;24.02;27.52;99230.31;4864219;29;20116;-85
2021/11/30 09:02:24;;;;;;;1.23;0.70;;;20.40;40.80;;;24.03;27.49;99234.69;4864575;29;20049;-85
2021/11/30 09:04:51;;;;;;;1.15;0.80;;;20.40;40.70;;;24.07;27.50;99240.56;4848851;29;20053;-85
2021/11/30 09:07:17;;;;;;;3.45;0.75;;;20.50;40.80;;;24.04;27.47;99233.72;4848947;29;20057;-85
2021/11/30 09:09:47;;;;;;;0.65;0.65;;;20.50;40.60;;;24.07;27.55;99245.88;4864012;29;20149;-85
2021/11/30 09:12:15;;;;;;;1.58;0.70;;;20.50;40.40;;;24.07;27.25;99249.38;4879513;29;20119;-84
2021/11/30 09:14:41;;;;;;;2.30;0.90;;;20.50;40.40;;;24.09;27.42;99247.44;4862078;29;20416;-84
2021/11/30 09:17:08;;;;;;;2.33;0.80;;;20.40;40.40;;;24.02;27.23;99244.53;4863974;29;20061;-84
2021/11/30 09:19:34;;;;;;;2.50;0.65;;;20.40;40.30;;;24.08;27.23;99256.41;4848595;29;20386;-84
2021/11/30 09:22:00;;;;;;;2.10;0.60;;;20.40;40.30;;;24.08;27.19;99252.91;4879344;29;20107;-85
2021/11/30 09:24:34;;;;;;;2.20;0.80;;;20.40;40.40;;;24.05;27.24;99241.53;4848395;29;20061;-84
2021/11/30 09:27:00;;;;;;;1.20;0.82;;;20.40;40.30;;;24.08;27.09;99247.59;4848659;29;20048;-84
2021/11/30 09:29:26;;;;;;;2.28;0.98;;;20.40;40.30;;;24.07;27.13;99244.06;4848523;29;20049;-84
2021/11/30 09:31:53;;;;;;;1.52;0.73;;;20.40;40.30;;;24.06;27.17;99250.41;4864062;29;20148;-84
2021/11/30 09:34:20;;;;;;;1.25;0.80;;;20.40;40.30;;;24.03;27.35;99232.03;4862049;29;20060;-85
2021/11/30 09:36:47;;;;;;;2.88;0.80;;;20.40;40.30;;;24.03;27.14;99224.00;4863680;29;20057;-84
2021/11/30 09:39:14;;;;;;;1.55;0.80;;;20.40;40.20;;;24.02;27.06;99223.19;4863699;29;20076;-85
2021/11/30 09:41:41;;;;;;;1.95;0.88;;;20.40;40.30;;;24.03;27.09;99224.00;4863831;29;20416;-85
2021/11/30 09:44:09;;;;;;;2.15;0.90;;;20.40;40.20;;;24.04;27.02;99225.69;4848261;29;20057;-84
2021/11/30 09:46:38;;;;;;;2.60;0.70;;;20.30;40.70;;;24.06;26.89;99229.03;4863965;29;20401;-84
2021/11/30 09:49:04;;;;;;;1.65;0.77;;;20.40;40.20;;;24.04;27.10;99231.03;4863634;29;20117;-84
2021/11/30 09:51:30;;;;;;;1.83;0.88;;;20.40;40.20;;;24.04;27.01;99233.72;4863647;29;20080;-84
2021/11/30 09:53:56;;;;;;;3.35;0.95;;;20.40;40.20;;;24.04;26.86;99242.53;4863849;29;20045;-85
2021/11/30 09:56:23;;;;;;;1.55;0.85;;;20.40;40.20;;;24.06;26.91;99239.72;4862406;29;20404;-85
2021/11/30 09:58:50;;;;;;;2.92;0.90;;;20.40;40.10;;;24.06;26.85;99229.03;4863664;29;20140;-84
2021/11/30 10:01:17;;;;;;;2.05;0.80;;;20.40;40.10;;;24.05;27.04;99233.53;4863730;29;20059;-84
2021/11/30 10:03:44;;;;;;;2.53;0.90;;;20.40;40.60;;;24.08;26.96;99235.06;4863374;29;20049;-84
2021/11/30 10:06:12;;;;;;;2.70;1.00;;;20.40;40.10;;;24.06;27.02;99234.38;4863337;29;20390;-84
2021/11/30 10:08:48;;;;;;;1.85;0.90;;;20.40;40.10;;;24.04;26.98;99234.53;4847855;29;20114;-84
2021/11/30 10:11:36;;;;;;;2.17;1.40;;;20.40;40.10;;;24.05;27.07;99222.84;4863399;29;20052;-84
2021/11/30 10:14:13;;;;;;;2.80;1.02;;;20.40;40.10;;;24.01;27.21;99220.66;4863428;29;20560;-84
2021/11/30 10:16:41;;;;;;;4.70;1.13;;;20.40;40.10;;;24.05;26.87;99225.50;4863672;29;20497;-84
2021/11/30 10:19:08;;;;;;;1.83;0.82;;;20.40;40.00;;;24.04;26.95;99226.53;4863026;29;20049;-85
2021/11/30 10:21:35;;;;;;;3.80;0.90;;;20.40;40.00;;;24.08;26.89;99227.06;4863269;29;20053;-84
2021/11/30 10:24:05;;;;;;;1.27;1.00;;;20.40;40.00;;;24.08;26.77;99235.06;4863091;29;20060;-84
2021/11/30 10:26:37;;;;;;;2.85;1.27;;;20.50;40.00;;;24.09;26.79;99222.53;4879820;29;20114;-84